Time;durP1;ratioP1;P1;durP2;ratioP2;P2;SDS_P1;SDS_P2;PMS_P1;PMS_P2;Temp;Humidity;BMP_temperature;BMP_pressure;BME280_temperature;BME280_humidity;BME280_pressure;Samples;Min_cycle;Max_cycle;Signal;HPM_P1;HPM_P2
2023/09/06 00:02:09;;;;;;;2.55;1.45;;;16.00;99.90;;;14.77;100.00;98012.56;5000444;28;20127;-75
2023/09/06 00:04:36;;;;;;;3.03;1.40;;;15.90;99.90;;;14.69;100.00;98012.13;5001907;28;20051;-75
2023/09/06 00:07:04;;;;;;;3.25;2.00;;;15.90;99.90;;;14.74;100.00;98011.88;4998998;28;20061;-75
2023/09/06 00:09:31;;;;;;;5.57;2.28;;;15.80;99.90;;;14.79;100.00;98010.72;4998695;28;20218;-74
2023/09/06 00:12:00;;;;;;;3.70;1.50;;;15.80;99.90;;;14.73;100.00;98008.41;5001493;28;20108;-75
2023/09/06 00:14:29;;;;;;;3.13;2.10;;;15.80;99.90;;;14.60;100.00;98010.84;4998511;28;20057;-75
2023/09/06 00:16:57;;;;;;;4.47;2.22;;;15.70;99.90;;;14.53;100.00;98016.41;4998278;28;20061;-75
2023/09/06 00:19:25;;;;;;;5.90;1.50;;;15.60;99.90;;;14.48;100.00;98013.19;4998033;28;20046;-75
2023/09/06 00:21:52;;;;;;;3.72;2.58;;;15.60;99.90;;;14.46;100.00;98015.91;4997010;28;20141;-75
2023/09/06 00:24:19;;;;;;;3.22;1.48;;;15.50;99.90;;;14.47;100.00;98014.13;5000163;28;20471;-75
2023/09/06 00:26:46;;;;;;;6.00;2.30;;;15.50;99.90;;;14.45;100.00;98014.19;4995054;28;20550;-75
2023/09/06 00:29:13;;;;;;;5.35;1.52;;;15.40;99.90;;;14.42;100.00;98015.22;4996810;28;20089;-75
2023/09/06 00:31:40;;;;;;;6.03;1.33;;;15.50;99.90;;;14.39;100.00;98011.88;4996629;28;20066;-75
2023/09/06 00:34:08;;;;;;;3.05;1.60;;;15.50;99.90;;;14.40;100.00;98011.81;4997361;28;20066;-74
2023/09/06 00:36:35;;;;;;;3.17;1.70;;;15.50;99.90;;;14.42;100.00;98014.38;5009196;28;20145;-74
2023/09/06 00:39:05;;;;;;;5.93;1.40;;;15.50;99.90;;;14.35;100.00;98013.00;4994319;28;20050;-74
2023/09/06 00:41:32;;;;;;;3.47;1.65;;;15.40;99.90;;;14.34;100.00;98022.56;4996684;28;20143;-75
2023/09/06 00:44:00;;;;;;;3.28;1.38;;;15.40;99.90;;;14.41;100.00;98012.66;4998256;28;20200;-75
2023/09/06 00:46:28;;;;;;;4.18;1.75;;;15.40;99.90;;;14.36;100.00;98004.22;4997225;28;20598;-75
2023/09/06 00:48:55;;;;;;;4.75;1.50;;;15.40;99.90;;;14.32;100.00;98010.53;4996956;28;20133;-75
2023/09/06 00:51:22;;;;;;;5.85;1.75;;;15.40;99.90;;;14.34;100.00;98006.91;5014597;28;20050;-76
2023/09/06 00:53:49;;;;;;;4.13;2.08;;;15.30;99.90;;;14.40;100.00;98011.81;4996716;28;20050;-75
2023/09/06 00:56:17;;;;;;;5.35;1.63;;;15.30;99.90;;;14.49;100.00;98001.84;4998575;28;20073;-74
2023/09/06 00:58:46;;;;;;;3.70;1.52;;;15.40;99.90;;;14.39;100.00;98002.31;4996331;28;20481;-75
2023/09/06 01:01:13;;;;;;;5.93;1.75;;;15.40;99.90;;;14.40;100.00;98000.53;4995708;28;20046;-75
2023/09/06 01:03:40;;;;;;;4.80;2.03;;;15.40;99.90;;;14.29;100.00;98005.47;5000091;28;20140;-75
2023/09/06 01:06:17;;;;;;;3.60;1.60;;;15.40;99.90;;;14.26;100.00;98006.47;4991954;28;20046;-75
2023/09/06 01:08:52;;;;;;;4.75;2.60;;;15.40;99.90;;;14.17;100.00;97999.94;4995081;28;20057;-74
2023/09/06 01:11:22;;;;;;;6.97;1.55;;;15.30;99.90;;;14.17;100.00;98004.31;4978914;28;20077;-74
2023/09/06 01:14:00;;;;;;;6.78;1.77;;;15.30;99.90;;;14.07;100.00;98003.94;5012066;28;20518;-75
2023/09/06 01:16:45;;;;;;;3.70;1.98;;;15.20;99.90;;;14.05;100.00;98004.91;4999392;28;20054;-74
2023/09/06 01:19:15;;;;;;;3.70;1.30;;;15.20;99.90;;;14.04;100.00;98003.25;4996356;28;20050;-75
2023/09/06 01:22:01;;;;;;;3.75;1.95;;;15.10;99.90;;;13.94;100.00;98008.09;4998489;28;20050;-74
2023/09/06 01:24:29;;;;;;;6.03;1.77;;;15.10;99.90;;;13.84;100.00;98004.22;4994444;28;20049;-74
2023/09/06 01:26:57;;;;;;;4.45;1.50;;;15.00;99.90;;;13.84;100.00;97996.38;5010431;28;20463;-75
2023/09/06 01:29:24;;;;;;;4.53;1.98;;;15.00;99.90;;;13.75;100.00;98005.50;4997903;28;20053;-75
2023/09/06 01:31:51;;;;;;;5.32;3.08;;;14.90;99.90;;;13.67;100.00;98002.44;4999100;28;20050;-75
2023/09/06 01:34:19;;;;;;;4.20;1.65;;;14.90;99.90;;;13.75;100.00;98002.91;4985016;28;20083;-75
2023/09/06 01:36:46;;;;;;;3.17;1.58;;;14.80;99.90;;;13.73;100.00;97999.50;4997939;28;20058;-75
2023/09/06 01:39:14;;;;;;;5.25;2.20;;;14.80;99.90;;;13.54;100.00;98008.22;4999154;28;20129;-75
2023/09/06 01:41:41;;;;;;;5.78;2.22;;;14.80;99.90;;;13.57;100.00;98010.72;4997119;28;20108;-76
2023/09/06 01:44:09;;;;;;;4.18;1.70;;;14.70;99.90;;;13.59;100.00;98005.41;4996757;28;20137;-75
2023/09/06 01:46:36;;;;;;;3.55;1.63;;;14.70;99.90;;;13.53;100.00;98005.72;4998272;28;20050;-75
2023/09/06 01:49:03;;;;;;;4.25;1.95;;;14.70;99.90;;;13.55;100.00;98009.09;4995940;28;20703;-74
2023/09/06 01:51:31;;;;;;;4.28;2.00;;;14.70;99.90;;;13.71;100.00;98007.44;4995953;28;20050;-76
2023/09/06 01:54:01;;;;;;;3.70;1.70;;;14.60;99.90;;;13.64;100.00;98010.41;4994274;28;20081;-76
2023/09/06 01:56:28;;;;;;;3.22;1.83;;;14.70;99.90;;;13.56;100.00;98003.78;4995851;28;20526;-76
2023/09/06 01:58:55;;;;;;;4.53;2.10;;;14.70;99.90;;;13.49;100.00;98004.16;4997931;28;20104;-76
2023/09/06 02:01:23;;;;;;;5.07;2.20;;;14.60;99.90;;;13.32;100.00;98007.53;4998118;28;20093;-76
2023/09/06 02:03:50;;;;;;;3.80;2.00;;;14.50;99.90;;;13.12;100.00;97996.28;4997550;28;20046;-76
2023/09/06 02:06:18;;;;;;;4.63;3.78;;;14.40;99.90;;;13.08;100.00;97994.72;5001460;28;20072;-76
2023/09/06 02:08:45;;;;;;;5.15;1.95;;;14.30;99.90;;;13.11;100.00;97989.38;4997553;28;20088;-76
2023/09/06 02:11:13;;;;;;;6.20;2.35;;;14.20;99.90;;;13.06;100.00;97987.88;4998833;28;20057;-76
2023/09/06 02:13:40;;;;;;;5.90;2.22;;;14.20;99.90;;;12.92;100.00;97984.16;4990158;28;20056;-76
2023/09/06 02:16:07;;;;;;;4.22;2.13;;;14.10;99.90;;;12.98;100.00;97981.28;4999780;28;20148;-76
2023/09/06 02:18:34;;;;;;;4.80;2.10;;;14.10;99.90;;;12.85;100.00;97987.09;4998072;28;20053;-76
2023/09/06 02:21:02;;;;;;;5.57;2.78;;;14.00;99.90;;;12.84;100.00;97981.06;4997381;28;20077;-76
2023/09/06 02:23:30;;;;;;;7.03;2.30;;;14.00;99.90;;;12.95;100.00;97977.94;4995201;28;20153;-76
2023/09/06 02:25:57;;;;;;;5.32;2.53;;;14.00;99.90;;;12.86;100.00;97971.38;4976423;28;20053;-76
2023/09/06 02:28:24;;;;;;;5.38;2.60;;;14.00;99.90;;;12.86;100.00;97983.56;4996642;28;20050;-76
2023/09/06 02:30:51;;;;;;;4.45;2.40;;;13.90;99.90;;;12.87;100.00;97985.28;4994211;28;20062;-76
2023/09/06 02:33:18;;;;;;;5.07;2.20;;;14.00;99.90;;;12.91;100.00;97982.47;4993440;28;20129;-76
2023/09/06 02:35:49;;;;;;;5.55;2.20;;;13.90;99.90;;;12.88;100.00;97981.75;4996842;28;20058;-76
2023/09/06 02:38:17;;;;;;;6.00;2.45;;;13.90;99.90;;;12.91;100.00;97987.69;4996663;28;20054;-76
2023/09/06 02:40:44;;;;;;;5.35;2.25;;;13.90;99.90;;;12.92;100.00;97983.31;4995204;28;20119;-76
2023/09/06 02:43:13;;;;;;;5.88;2.33;;;13.90;99.90;;;12.86;100.00;97986.19;4995060;28;20134;-75
2023/09/06 02:45:49;;;;;;;4.25;2.10;;;13.90;99.90;;;12.76;100.00;97985.75;4998469;28;20058;-76
2023/09/06 02:48:18;;;;;;;4.00;1.95;;;13.90;99.90;;;12.68;100.00;97980.03;4994739;28;20050;-76
2023/09/06 02:50:46;;;;;;;5.95;2.03;;;13.90;99.90;;;12.73;100.00;97978.94;4997123;28;20518;-76
2023/09/06 02:53:19;;;;;;;3.70;1.88;;;13.90;99.90;;;12.68;100.00;97985.25;4998704;28;20050;-77
2023/09/06 02:55:51;;;;;;;4.53;2.30;;;13.80;99.90;;;12.64;100.00;97981.09;4994301;28;20510;-76
2023/09/06 02:58:23;;;;;;;11.07;2.35;;;13.80;99.90;;;12.61;100.00;97989.03;4994591;28;20076;-76
2023/09/06 03:00:57;;;;;;;4.95;2.03;;;13.70;99.90;;;12.52;100.00;97982.47;4982266;28;20081;-76
2023/09/06 03:03:26;;;;;;;3.15;1.90;;;13.60;99.90;;;12.47;100.00;97987.88;4979663;28;20046;-76
2023/09/06 03:05:59;;;;;;;7.53;2.28;;;13.60;99.90;;;12.33;100.00;97991.09;4992662;28;20522;-76
2023/09/06 03:08:27;;;;;;;5.05;2.25;;;13.50;99.90;;;12.42;100.00;97986.41;4994960;28;20096;-76
2023/09/06 03:10:56;;;;;;;7.35;3.05;;;13.50;99.90;;;12.29;100.00;97988.69;4998895;28;20216;-75
2023/09/06 03:13:24;;;;;;;4.63;2.67;;;13.40;99.90;;;12.42;100.00;97989.84;5011689;28;20050;-76
2023/09/06 03:15:51;;;;;;;5.18;2.75;;;13.40;99.90;;;12.47;100.00;97992.25;4976736;28;20526;-76
2023/09/06 03:18:22;;;;;;;5.43;2.38;;;13.50;99.90;;;12.54;100.00;97993.66;4991075;28;20495;-76
2023/09/06 03:20:55;;;;;;;4.97;2.53;;;13.60;99.90;;;12.38;100.00;97988.28;4994105;28;20133;-76
2023/09/06 03:23:24;;;;;;;7.40;2.85;;;13.60;99.90;;;12.41;100.00;97989.94;4998523;28;20064;-76
2023/09/06 03:25:54;;;;;;;5.20;2.80;;;13.50;99.90;;;12.23;100.00;97988.97;4998095;28;20135;-76
2023/09/06 03:28:23;;;;;;;6.88;2.20;;;13.40;99.90;;;12.31;100.00;97986.84;5009215;28;20053;-76
2023/09/06 03:30:54;;;;;;;9.05;2.67;;;13.30;99.90;;;12.24;100.00;97994.09;4978872;28;20057;-76
2023/09/06 03:33:22;;;;;;;5.30;1.75;;;13.30;99.90;;;12.15;100.00;97991.88;4989410;28;20050;-76
2023/09/06 03:35:50;;;;;;;6.20;2.35;;;13.30;99.90;;;12.12;100.00;97992.00;4993734;28;20145;-76
2023/09/06 03:38:17;;;;;;;4.35;2.55;;;13.20;99.90;;;12.04;100.00;97991.47;4995794;28;20069;-76
2023/09/06 03:40:45;;;;;;;5.22;2.30;;;13.20;99.90;;;11.92;100.00;97995.44;4996746;28;20053;-76
2023/09/06 03:43:16;;;;;;;7.10;2.72;;;13.20;99.90;;;11.97;100.00;97992.66;4993590;28;20096;-76
2023/09/06 03:45:46;;;;;;;5.78;2.70;;;13.20;99.90;;;11.96;100.00;98001.38;4998405;28;20057;-76
2023/09/06 03:48:13;;;;;;;4.85;2.38;;;13.10;99.90;;;11.96;100.00;97998.78;4998915;28;20140;-76
2023/09/06 03:50:40;;;;;;;5.63;2.47;;;13.10;99.90;;;12.04;100.00;97997.56;4999492;28;20061;-76
2023/09/06 03:53:07;;;;;;;5.22;2.35;;;13.10;99.90;;;11.91;100.00;97994.59;5000682;28;20060;-76
2023/09/06 03:55:37;;;;;;;5.80;2.65;;;13.10;99.90;;;11.68;100.00;98000.72;5001094;28;20545;-76
2023/09/06 03:58:07;;;;;;;4.78;2.63;;;13.00;99.90;;;11.66;100.00;97997.31;4997874;28;20814;-76
2023/09/06 04:00:34;;;;;;;6.38;2.85;;;12.90;99.90;;;11.64;100.00;97999.13;4997753;28;20135;-76
2023/09/06 04:03:03;;;;;;;7.10;2.65;;;12.80;99.90;;;11.57;100.00;98002.06;4998519;28;20173;-76
2023/09/06 04:05:32;;;;;;;9.32;3.10;;;12.80;99.90;;;11.66;100.00;98014.69;4999236;28;20061;-76
2023/09/06 04:08:04;;;;;;;4.85;2.75;;;12.80;99.90;;;11.65;100.00;98007.78;4998296;28;20049;-76
2023/09/06 04:10:36;;;;;;;8.32;2.80;;;12.80;99.90;;;11.75;100.00;98005.66;4986835;28;20755;-76
2023/09/06 04:13:09;;;;;;;5.85;2.58;;;12.90;99.90;;;11.82;100.00;98000.16;4985099;28;20675;-76
2023/09/06 04:15:37;;;;;;;10.95;2.85;;;12.90;99.90;;;11.63;100.00;98006.97;4998837;28;20164;-76
2023/09/06 04:18:10;;;;;;;7.93;2.67;;;12.80;99.90;;;11.57;100.00;98002.06;4980788;28;20053;-76
2023/09/06 04:20:40;;;;;;;;;;;12.80;99.90;;;11.69;100.00;97998.94;4997986;28;20522;-76
2023/09/06 04:23:13;;;;;;;7.55;2.60;;;12.70;99.90;;;11.63;100.00;98004.38;4996106;28;20048;-76
2023/09/06 04:25:43;;;;;;;4.32;2.55;;;12.70;99.90;;;11.51;100.00;98005.72;4994506;28;20590;-76
2023/09/06 04:28:15;;;;;;;10.57;2.55;;;12.70;99.90;;;11.55;100.00;97998.66;4999174;28;20072;-76
2023/09/06 04:30:48;;;;;;;5.35;3.53;;;12.70;99.90;;;11.58;100.00;98004.56;4996291;28;20053;-76
2023/09/06 04:33:15;;;;;;;4.65;2.35;;;12.70;99.90;;;11.62;100.00;98002.72;4999792;28;20187;-76
2023/09/06 04:35:48;;;;;;;4.60;2.35;;;12.70;99.90;;;11.57;100.00;97992.50;4996738;28;20046;-76
2023/09/06 04:38:18;;;;;;;5.57;2.67;;;12.70;99.90;;;11.55;100.00;98002.09;4985056;28;20050;-76
2023/09/06 04:40:47;;;;;;;4.70;2.40;;;12.70;99.90;;;11.55;100.00;97994.31;4996605;28;20129;-76
2023/09/06 04:43:19;;;;;;;5.03;2.13;;;12.70;99.90;;;11.58;100.00;97995.94;4998426;28;20056;-76
2023/09/06 04:45:49;;;;;;;5.30;2.30;;;12.70;99.90;;;11.55;100.00;97996.06;4995233;28;20573;-76
2023/09/06 04:48:18;;;;;;;4.00;1.92;;;12.70;99.90;;;11.55;100.00;97999.50;4994669;28;20308;-76
2023/09/06 04:50:46;;;;;;;6.38;2.83;;;12.70;99.90;;;11.56;100.00;98003.78;4994874;28;20050;-76
2023/09/06 04:53:17;;;;;;;6.78;3.05;;;12.70;99.90;;;11.54;100.00;98000.44;4995373;28;20050;-76
2023/09/06 04:55:49;;;;;;;8.25;3.40;;;12.70;99.90;;;11.51;100.00;97996.16;4993253;28;20209;-76
2023/09/06 04:58:18;;;;;;;6.15;2.58;;;12.60;99.90;;;11.55;100.00;98001.25;5000202;28;20050;-76
2023/09/06 05:00:50;;;;;;;9.40;3.70;;;12.60;99.90;;;11.54;100.00;97999.56;4995019;28;20118;-76
2023/09/06 05:03:17;;;;;;;4.55;2.13;;;12.60;99.90;;;11.56;100.00;98003.78;4992880;28;20050;-76
2023/09/06 05:05:47;;;;;;;7.25;2.85;;;12.70;99.90;;;11.49;100.00;98011.00;5002322;28;20121;-76
2023/09/06 05:08:14;;;;;;;5.70;2.33;;;12.60;99.90;;;11.54;100.00;98009.94;4999370;28;20054;-76
2023/09/06 05:10:42;;;;;;;6.25;2.92;;;12.60;99.90;;;11.60;100.00;98007.97;5000794;28;20137;-75
2023/09/06 05:13:11;;;;;;;6.10;3.28;;;12.60;99.90;;;11.65;100.00;98007.78;4988834;28;20502;-76
2023/09/06 05:15:39;;;;;;;6.80;2.50;;;12.70;99.90;;;11.45;100.00;98006.81;5002275;28;20128;-76
2023/09/06 05:18:08;;;;;;;6.05;3.35;;;12.70;99.90;;;11.56;100.00;98008.97;4998388;28;20042;-76
2023/09/06 05:20:40;;;;;;;8.20;3.63;;;12.60;99.90;;;11.66;100.00;98007.72;4986057;28;20068;-77
2023/09/06 05:23:13;;;;;;;5.00;2.70;;;12.60;99.90;;;11.67;100.00;98009.41;4981472;28;20050;-76
2023/09/06 05:25:42;;;;;;;9.70;3.17;;;12.70;99.90;;;11.85;100.00;98013.00;5002945;28;20619;-76
2023/09/06 05:28:15;;;;;;;5.85;2.92;;;12.80;99.90;;;11.90;100.00;98011.09;4979766;28;20494;-74
2023/09/06 05:30:45;;;;;;;7.90;3.00;;;12.90;99.90;;;12.03;100.00;98018.41;4985397;28;20172;-76
2023/09/06 05:33:14;;;;;;;5.38;2.80;;;12.90;99.90;;;11.89;100.00;98029.38;4998907;28;20523;-76
2023/09/06 05:35:43;;;;;;;8.75;2.90;;;13.00;99.90;;;11.93;100.00;98025.75;4998840;28;20054;-75
2023/09/06 05:38:10;;;;;;;6.60;3.05;;;12.90;99.90;;;11.99;100.00;98019.44;4995716;28;20124;-76
2023/09/06 05:40:40;;;;;;;6.38;3.08;;;12.90;99.90;;;11.99;100.00;98019.44;4999782;28;20057;-76
2023/09/06 05:43:08;;;;;;;5.68;2.47;;;12.90;99.90;;;12.01;100.00;98020.22;4987849;28;20130;-76
2023/09/06 05:45:39;;;;;;;5.57;3.38;;;12.90;99.90;;;12.01;100.00;98025.44;4995891;28;20128;-76
2023/09/06 05:48:07;;;;;;;7.53;2.55;;;12.90;99.90;;;12.08;100.00;98024.28;5001446;28;20085;-76
2023/09/06 05:50:38;;;;;;;7.63;2.90;;;13.00;99.90;;;12.18;100.00;98025.59;4998014;28;20050;-76
2023/09/06 05:53:05;;;;;;;4.47;2.45;;;13.00;99.90;;;12.19;100.00;98023.81;4985428;28;20188;-76
2023/09/06 05:55:35;;;;;;;6.75;2.60;;;13.00;99.90;;;12.17;100.00;98029.09;4985928;28;20693;-76
2023/09/06 05:58:02;;;;;;;6.80;2.53;;;13.10;99.90;;;12.41;100.00;98028.97;4987840;28;20049;-76
2023/09/06 06:00:31;;;;;;;7.65;2.95;;;13.20;99.90;;;12.26;100.00;98035.66;4994660;28;20046;-76
2023/09/06 06:03:02;;;;;;;4.75;2.38;;;13.20;99.90;;;12.46;100.00;98033.06;4997900;28;20057;-76
2023/09/06 06:05:29;;;;;;;6.32;2.60;;;13.30;99.90;;;12.72;100.00;98031.09;4984847;28;20051;-76
2023/09/06 06:08:00;;;;;;;9.43;3.15;;;13.40;99.90;;;12.95;100.00;98040.47;4998005;28;20073;-76
2023/09/06 06:10:34;;;;;;;4.50;2.58;;;13.50;99.90;;;13.25;100.00;98038.25;4999309;28;20050;-76
2023/09/06 06:13:07;;;;;;;8.25;2.75;;;13.80;99.90;;;13.38;100.00;98036.78;4998719;28;20132;-76
2023/09/06 06:15:34;;;;;;;4.70;2.45;;;13.90;99.90;;;13.67;100.00;98044.19;4997406;28;20088;-76
2023/09/06 06:18:02;;;;;;;5.88;2.83;;;14.10;99.90;;;13.77;100.00;98045.41;5012149;28;20054;-76
2023/09/06 06:20:29;;;;;;;5.25;2.75;;;14.30;99.90;;;14.00;100.00;98044.28;4995823;28;20069;-77
2023/09/06 06:23:09;;;;;;;5.13;2.60;;;14.50;99.90;;;14.38;100.00;98041.56;4988430;28;20049;-77
2023/09/06 06:25:38;;;;;;;5.70;3.10;;;14.70;99.90;;;14.46;100.00;98034.19;4998521;28;20503;-76
2023/09/06 06:28:06;;;;;;;6.22;2.58;;;14.90;99.90;;;14.80;100.00;98022.00;4998122;28;20104;-75
2023/09/06 06:30:33;;;;;;;7.85;3.38;;;15.10;99.90;;;15.14;100.00;98014.97;4997196;28;20129;-76
2023/09/06 06:33:00;;;;;;;5.97;2.53;;;15.40;99.90;;;15.44;100.00;98007.22;4997077;28;20093;-76
2023/09/06 06:35:28;;;;;;;7.63;2.85;;;15.60;99.90;;;15.91;100.00;98006.34;4996082;28;20516;-76
2023/09/06 06:37:55;;;;;;;8.18;2.30;;;15.90;99.90;;;16.16;100.00;98000.53;4970672;28;20046;-76
2023/09/06 06:40:24;;;;;;;4.03;2.38;;;16.30;99.90;;;16.37;100.00;97997.59;5010815;28;20042;-76
2023/09/06 06:42:51;;;;;;;5.15;2.58;;;16.50;99.90;;;16.42;100.00;98000.78;4998100;28;20077;-74
2023/09/06 06:45:18;;;;;;;5.65;2.33;;;16.80;99.90;;;16.54;100.00;98005.28;4999867;28;20136;-76
2023/09/06 06:47:46;;;;;;;7.60;2.60;;;16.90;99.90;;;16.56;100.00;97992.94;4996272;28;20046;-75
2023/09/06 06:50:13;;;;;;;4.45;2.78;;;17.00;99.90;;;16.76;100.00;98002.19;4998753;28;20176;-76
2023/09/06 06:52:44;;;;;;;5.32;2.63;;;17.10;99.90;;;16.82;100.00;97999.25;4996781;28;20089;-77
2023/09/06 06:55:15;;;;;;;3.63;2.10;;;17.30;99.90;;;16.98;100.00;97999.16;4993394;28;20057;-76
2023/09/06 06:57:42;;;;;;;5.20;2.47;;;17.40;99.90;;;17.10;100.00;97995.75;4995723;28;20061;-76
2023/09/06 07:00:11;;;;;;;5.25;2.15;;;17.50;99.90;;;17.19;100.00;98001.38;4997737;28;20050;-76
2023/09/06 07:02:39;;;;;;;5.75;2.78;;;17.60;99.90;;;17.39;100.00;98005.38;4997135;28;20087;-76
2023/09/06 07:05:06;;;;;;;4.43;2.72;;;17.80;99.90;;;17.40;100.00;98007.03;4998086;28;20077;-76
2023/09/06 07:07:33;;;;;;;4.95;2.17;;;17.90;99.90;;;17.46;100.00;98009.28;4998343;28;20061;-74
2023/09/06 07:10:01;;;;;;;8.05;3.08;;;18.00;99.90;;;17.63;100.00;98005.56;4994780;28;20062;-74
2023/09/06 07:12:29;;;;;;;5.38;2.78;;;18.10;99.90;;;17.79;100.00;98006.28;4997506;28;20085;-74
2023/09/06 07:14:59;;;;;;;6.15;2.40;;;18.20;99.90;;;17.80;100.00;98005.31;4998395;28;20503;-76
2023/09/06 07:17:26;;;;;;;6.22;2.85;;;18.40;99.90;;;17.97;100.00;98010.34;4999451;28;20050;-77
2023/09/06 07:19:54;;;;;;;7.03;3.05;;;18.50;99.90;;;18.04;100.00;98004.69;5003174;28;20455;-77
2023/09/06 07:22:21;;;;;;;7.68;2.60;;;18.50;99.90;;;18.08;100.00;98009.63;5000244;28;20484;-76
2023/09/06 07:24:48;;;;;;;4.82;2.72;;;18.60;99.90;;;18.19;100.00;98016.81;4998296;28;20053;-76
2023/09/06 07:27:18;;;;;;;5.78;2.50;;;18.70;99.90;;;18.24;100.00;98017.34;4984540;28;20810;-76
2023/09/06 07:29:45;;;;;;;4.13;2.28;;;18.80;99.90;;;18.38;100.00;98013.78;4986298;28;20108;-76
2023/09/06 07:32:13;;;;;;;6.75;3.03;;;18.90;99.90;;;18.51;100.00;98024.31;5000035;28;20129;-76
2023/09/06 07:34:40;;;;;;;5.13;2.42;;;19.00;99.90;;;18.41;100.00;98026.72;5001330;28;20639;-76
2023/09/06 07:37:07;;;;;;;6.38;2.58;;;19.10;99.90;;;18.43;100.00;98026.59;5000161;28;20050;-76
2023/09/06 07:39:34;;;;;;;7.47;2.75;;;19.00;99.90;;;18.45;100.00;98032.59;5013963;28;20133;-76
2023/09/06 07:42:03;;;;;;;8.38;2.55;;;19.10;99.90;;;18.59;100.00;98027.28;4999076;28;20050;-77
2023/09/06 07:44:32;;;;;;;7.72;3.22;;;19.20;99.90;;;18.60;100.00;98035.03;4986158;28;20577;-77
2023/09/06 07:46:59;;;;;;;7.57;3.10;;;19.20;99.90;;;18.67;100.00;98038.09;4999550;28;20089;-76
2023/09/06 07:49:30;;;;;;;7.22;2.80;;;19.40;99.90;;;18.73;100.00;98035.06;4985652;28;20050;-77
2023/09/06 07:51:57;;;;;;;4.60;2.50;;;19.40;99.90;;;18.86;100.00;98032.47;4997354;28;20136;-75
2023/09/06 07:54:25;;;;;;;6.50;3.25;;;19.50;99.90;;;19.05;100.00;98033.81;5001193;28;20137;-76
2023/09/06 07:56:52;;;;;;;4.68;3.03;;;19.50;99.90;;;19.30;100.00;98027.66;5002349;28;20104;-76
2023/09/06 07:59:22;;;;;;;4.82;3.13;;;19.70;99.90;;;19.88;100.00;98038.44;4998614;28;20506;-76
2023/09/06 08:01:50;;;;;;;4.30;2.90;;;19.80;99.90;;;20.37;100.00;98035.66;4985987;28;20078;-77
2023/09/06 08:04:19;;;;;;;5.35;3.22;;;20.00;99.90;;;20.61;100.00;98037.41;5000236;28;20117;-77
2023/09/06 08:06:47;;;;;;;4.43;2.90;;;20.20;99.90;;;20.86;100.00;98039.00;4984444;28;20054;-77
2023/09/06 08:09:14;;;;;;;6.50;3.13;;;20.60;99.90;;;21.05;100.00;98048.97;5001388;28;20054;-77
2023/09/06 08:11:43;;;;;;;5.28;2.78;;;20.90;99.90;;;21.17;100.00;98045.38;4997097;28;20050;-77
2023/09/06 08:14:10;;;;;;;4.40;2.50;;;21.20;99.90;;;21.36;100.00;98052.69;5012883;28;20050;-74
2023/09/06 08:16:37;;;;;;;6.03;2.80;;;21.90;99.90;;;21.89;100.00;98057.28;5000543;28;20046;-74
2023/09/06 08:19:04;;;;;;;5.53;3.15;;;22.60;99.90;;;22.66;100.00;98067.69;4998397;28;20053;-73
2023/09/06 08:21:33;;;;;;;4.80;2.63;;;23.50;99.90;;;22.78;100.00;98071.09;4997772;28;20073;-74
2023/09/06 08:24:02;;;;;;;4.57;2.40;;;24.20;99.90;;;23.15;100.00;98062.72;4989344;28;20101;-75
2023/09/06 08:26:29;;;;;;;3.67;2.13;;;24.90;99.90;;;23.11;100.00;98072.72;5001547;28;20061;-75
2023/09/06 08:28:56;;;;;;;5.25;2.38;;;25.40;99.90;;;23.90;100.00;98072.03;5001475;28;20069;-75
2023/09/06 08:31:24;;;;;;;4.88;2.40;;;25.90;99.90;;;23.80;100.00;98079.09;4980932;28;20057;-75
2023/09/06 08:33:51;;;;;;;4.50;2.45;;;26.40;99.90;;;24.11;100.00;98079.84;5000557;28;20132;-75
2023/09/06 08:36:18;;;;;;;4.38;2.25;;;26.90;99.90;;;24.50;100.00;98079.91;4999137;28;20580;-75
2023/09/06 08:38:46;;;;;;;3.78;2.33;;;26.90;99.90;;;23.92;100.00;98078.00;4998868;28;20046;-75
2023/09/06 08:41:14;;;;;;;4.35;2.53;;;27.00;99.90;;;24.41;100.00;98072.75;5002453;28;20136;-75
2023/09/06 08:43:44;;;;;;;4.57;2.22;;;27.10;99.90;;;24.50;100.00;98074.59;4983527;28;20111;-75
2023/09/06 08:46:45;;;;;;;4.50;2.28;;;27.20;99.90;;;24.19;100.00;98080.00;4999393;28;20078;-75
2023/09/06 08:49:15;;;;;;;4.20;2.60;;;27.10;99.50;;;24.57;100.00;98081.00;5001080;28;20053;-75
2023/09/06 08:51:44;;;;;;;4.03;1.95;;;27.20;99.20;;;24.61;100.00;98074.44;4997736;28;20506;-75
2023/09/06 08:54:12;;;;;;;4.30;2.25;;;27.10;99.40;;;24.57;100.00;98083.66;4999173;28;20065;-74
2023/09/06 08:56:40;;;;;;;5.82;2.20;;;27.10;99.50;;;24.80;100.00;98072.72;5002586;28;20077;-74
2023/09/06 08:59:08;;;;;;;4.97;2.33;;;27.30;99.00;;;24.81;100.00;98077.91;4995105;28;20053;-73
2023/09/06 09:01:37;;;;;;;3.75;2.05;;;27.40;98.50;;;25.28;100.00;98071.75;4998420;28;20462;-75
2023/09/06 09:04:05;;;;;;;4.20;2.40;;;27.50;98.30;;;25.56;100.00;98071.78;4999429;28;20535;-75
2023/09/06 09:06:32;;;;;;;4.03;1.90;;;28.00;98.00;;;25.48;100.00;98075.19;5012509;28;20053;-74
2023/09/06 09:09:17;;;;;;;4.68;2.20;;;28.00;97.90;;;25.55;100.00;98067.47;5012887;28;20128;-74
2023/09/06 09:11:46;;;;;;;5.88;2.80;;;28.00;97.40;;;25.46;100.00;98069.16;4982895;28;20141;-74
2023/09/06 09:14:21;;;;;;;4.70;2.45;;;27.90;97.60;;;26.28;100.00;98070.91;5001394;28;20053;-74
2023/09/06 09:16:58;;;;;;;5.22;2.30;;;27.90;97.40;;;26.08;100.00;98072.03;4998007;28;20533;-75
2023/09/06 09:19:26;;;;;;;4.38;2.05;;;28.10;96.90;;;26.31;100.00;98074.25;4994753;28;20053;-74
2023/09/06 09:21:55;;;;;;;4.38;2.00;;;28.20;97.10;;;26.60;100.00;98066.88;5000789;28;20053;-73
2023/09/06 09:24:29;;;;;;;3.30;2.17;;;28.40;96.60;;;26.33;100.00;98066.94;4999545;28;20057;-74
2023/09/06 09:26:57;;;;;;;3.63;1.80;;;28.60;96.50;;;26.53;100.00;98067.63;5001724;28;20085;-74
2023/09/06 09:29:25;;;;;;;3.70;2.08;;;28.40;96.20;;;26.25;100.00;98063.22;4996003;28;20060;-75
2023/09/06 09:31:52;;;;;;;4.40;1.90;;;28.20;95.70;;;26.84;100.00;98068.03;4996616;28;20050;-75
2023/09/06 09:34:20;;;;;;;8.35;2.50;;;28.40;96.10;;;26.20;100.00;98067.31;4995804;28;20564;-76
2023/09/06 09:36:51;;;;;;;2.70;1.60;;;28.40;95.00;;;27.07;100.00;98060.34;4995157;28;20119;-75
2023/09/06 09:39:19;;;;;;;3.63;2.08;;;28.40;95.20;;;27.50;100.00;98054.06;4968727;28;20046;-75
2023/09/06 09:41:47;;;;;;;4.25;2.38;;;;;;;28.33;100.00;98057.81;4981790;28;20082;-75
2023/09/06 09:44:25;;;;;;;4.25;2.28;;;;;;;27.92;100.00;98060.41;4997352;28;20045;-76
2023/09/06 09:46:57;;;;;;;3.70;1.48;;;29.30;94.70;;;27.55;100.00;98056.25;4996470;28;20058;-75
2023/09/06 09:49:28;;;;;;;3.85;2.03;;;29.40;93.80;;;27.51;100.00;98057.59;4996704;28;20137;-76
2023/09/06 09:51:58;;;;;;;3.35;1.75;;;29.00;93.80;;;28.07;100.00;98049.91;4992612;28;20164;-74
2023/09/06 09:54:33;;;;;;;2.92;1.80;;;29.20;94.50;;;27.44;100.00;98046.75;4992963;28;20054;-75
2023/09/06 09:57:07;;;;;;;3.88;1.90;;;29.50;93.10;;;27.95;100.00;98047.56;4995098;28;20050;-76
2023/09/06 09:59:38;;;;;;;4.38;1.90;;;29.40;93.50;;;27.90;100.00;98051.75;5010441;28;20484;-75
2023/09/06 10:02:07;;;;;;;3.78;2.13;;;29.00;93.60;;;28.38;100.00;98046.63;5011943;28;20060;-75
2023/09/06 10:04:37;;;;;;;3.72;2.08;;;29.20;93.50;;;28.46;100.00;98047.44;4977951;28;20225;-75
2023/09/06 10:07:08;;;;;;;3.45;2.10;;;29.40;93.70;;;27.94;100.00;98043.25;4982378;28;20512;-75
2023/09/06 10:09:39;;;;;;;3.17;1.95;;;29.70;92.50;;;28.98;100.00;98032.88;4999194;28;20057;-74
2023/09/06 10:12:26;;;;;;;3.45;1.83;;;29.80;92.80;;;28.56;100.00;98037.47;4980821;28;20041;-75
2023/09/06 10:14:54;;;;;;;3.53;1.47;;;29.70;92.20;;;29.71;100.00;98034.47;4997284;28;20054;-74
2023/09/06 10:17:21;;;;;;;3.78;2.30;;;29.80;93.10;;;28.58;100.00;98034.63;4998730;28;20046;-73
2023/09/06 10:19:53;;;;;;;2.95;1.95;;;29.90;92.20;;;28.50;100.00;98031.94;4995103;28;20045;-74
2023/09/06 10:22:21;;;;;;;2.83;1.67;;;29.70;92.00;;;28.72;100.00;98031.25;4997038;28;20046;-74